createdAt,value
2018-01-03T00:01:10.709Z,21.75
2018-01-03T00:03:36.720Z,21.65
2018-01-03T00:06:02.665Z,21.56
2018-01-03T00:08:28.745Z,21.64
2018-01-03T00:10:54.718Z,21.50
2018-01-03T00:13:20.798Z,21.53
2018-01-03T00:15:46.738Z,21.41
2018-01-03T00:18:12.773Z,21.38
2018-01-03T00:20:38.729Z,21.40
2018-01-03T00:23:04.691Z,21.39
2018-01-03T00:25:30.625Z,21.40
2018-01-03T00:27:56.597Z,21.41
2018-01-03T00:30:22.562Z,21.41
2018-01-03T00:32:48.590Z,21.40
2018-01-03T00:35:14.544Z,21.35
2018-01-03T00:37:40.507Z,21.32
2018-01-03T00:40:06.457Z,21.36
2018-01-03T00:42:32.405Z,21.35
2018-01-03T00:44:58.366Z,21.35
2018-01-03T00:47:24.382Z,21.29
2018-01-03T00:49:50.329Z,21.32
2018-01-03T00:52:16.296Z,21.28
2018-01-03T00:54:42.423Z,21.25
2018-01-03T00:57:08.385Z,21.21
2018-01-03T00:59:34.347Z,21.27
2018-01-03T01:02:00.300Z,21.22
2018-01-03T01:04:26.269Z,21.32
2018-01-03T01:06:52.217Z,21.27
2018-01-03T01:09:18.190Z,21.19
2018-01-03T01:11:44.185Z,21.15
2018-01-03T01:14:10.134Z,21.17
2018-01-03T01:16:36.098Z,21.19
2018-01-03T01:19:02.061Z,21.15
2018-01-03T01:21:28.017Z,21.19
2018-01-03T01:23:53.969Z,21.17
2018-01-03T01:26:19.922Z,21.19
2018-01-03T01:28:45.872Z,21.19
2018-01-03T01:31:11.825Z,21.19
2018-01-03T01:33:37.789Z,21.21
2018-01-03T01:36:03.734Z,21.16
2018-01-03T01:38:29.728Z,21.19
2018-01-03T01:40:55.678Z,21.15
2018-01-03T01:43:21.905Z,21.14
2018-01-03T01:45:47.870Z,21.11
2018-01-03T01:48:13.821Z,21.09
2018-01-03T01:50:39.764Z,21.16
2018-01-03T01:53:05.717Z,21.13
2018-01-03T01:55:31.670Z,21.11
2018-01-03T01:57:57.717Z,21.14
2018-01-03T02:00:23.684Z,21.12
2018-01-03T02:02:49.625Z,21.08
2018-01-03T02:05:15.605Z,21.03
2018-01-03T02:07:41.553Z,21.09
2018-01-03T02:10:07.486Z,21.10
2018-01-03T02:12:33.457Z,21.08
2018-01-03T02:14:59.408Z,21.12
2018-01-03T02:17:25.349Z,21.17
2018-01-03T02:19:51.313Z,21.13
2018-01-03T02:22:17.273Z,21.04
2018-01-03T02:24:43.216Z,21.06
2018-01-03T02:27:09.181Z,21.06
2018-01-03T02:29:35.142Z,21.13
2018-01-03T02:32:01.076Z,21.05
2018-01-03T02:34:27.084Z,21.05
2018-01-03T02:36:53.006Z,21.04
2018-01-03T02:39:18.948Z,21.05
2018-01-03T02:41:44.896Z,21.06
2018-01-03T02:44:10.865Z,21.00
2018-01-03T02:46:36.833Z,21.06
2018-01-03T02:49:02.774Z,21.00
2018-01-03T02:51:28.743Z,21.08
2018-01-03T02:53:54.693Z,21.04
2018-01-03T02:56:20.637Z,21.06
2018-01-03T02:58:46.585Z,21.08
2018-01-03T03:01:12.534Z,21.06
2018-01-03T03:03:38.588Z,21.04
2018-01-03T03:06:04.644Z,21.05
2018-01-03T03:08:30.581Z,21.04
2018-01-03T03:10:56.552Z,21.09
2018-01-03T03:13:22.509Z,21.05
2018-01-03T03:15:48.477Z,20.98
2018-01-03T03:18:14.436Z,20.97
2018-01-03T03:20:40.405Z,21.02
2018-01-03T03:23:06.369Z,21.00
2018-01-03T03:25:32.334Z,21.00
2018-01-03T03:27:58.273Z,20.97
2018-01-03T03:30:24.225Z,21.00
2018-01-03T03:32:50.193Z,21.06
2018-01-03T03:35:16.164Z,21.00
2018-01-03T03:37:42.109Z,21.00
2018-01-03T03:40:08.077Z,20.99
2018-01-03T03:42:34.034Z,21.01
2018-01-03T03:44:59.985Z,20.97
2018-01-03T03:47:25.942Z,20.92
2018-01-03T03:49:51.881Z,21.00
2018-01-03T03:52:17.838Z,21.13
2018-01-03T03:54:43.805Z,21.16
2018-01-03T03:57:09.766Z,21.19
2018-01-03T03:59:35.731Z,21.29
2018-01-03T04:02:01.670Z,21.33
2018-01-03T04:04:27.632Z,21.39
2018-01-03T04:06:53.584Z,21.35
2018-01-03T04:09:19.541Z,21.40
2018-01-03T04:11:45.494Z,21.43
2018-01-03T04:14:11.492Z,21.43
2018-01-03T04:16:37.489Z,21.43
2018-01-03T04:19:03.425Z,21.47
2018-01-03T04:21:29.385Z,21.44
2018-01-03T04:23:55.337Z,21.43
2018-01-03T04:26:21.297Z,21.48
2018-01-03T04:28:47.241Z,21.49
2018-01-03T04:31:13.172Z,21.49
2018-01-03T04:33:39.133Z,21.49
2018-01-03T04:36:05.253Z,21.54
2018-01-03T04:38:31.213Z,21.65
2018-01-03T04:40:57.160Z,21.58
2018-01-03T04:43:23.175Z,21.54
2018-01-03T04:45:49.128Z,21.57
2018-01-03T04:48:15.101Z,21.56
2018-01-03T04:50:41.041Z,21.51
2018-01-03T04:53:06.985Z,21.56
2018-01-03T04:55:32.929Z,21.50
2018-01-03T04:57:58.905Z,21.50
2018-01-03T05:00:24.891Z,21.51
2018-01-03T05:02:50.836Z,21.53
2018-01-03T05:05:16.780Z,21.50
2018-01-03T05:07:42.817Z,21.53
2018-01-03T05:10:08.761Z,21.50
2018-01-03T05:12:34.721Z,21.45
2018-01-03T05:15:00.811Z,21.50
2018-01-03T05:17:26.757Z,21.49
2018-01-03T05:19:52.716Z,21.49
2018-01-03T05:22:18.664Z,21.56
2018-01-03T05:24:44.617Z,21.50
2018-01-03T05:27:10.561Z,21.54
2018-01-03T05:29:36.517Z,21.54
2018-01-03T05:32:02.485Z,21.55
2018-01-03T05:34:28.565Z,21.56
2018-01-03T05:36:54.517Z,21.64
2018-01-03T05:39:20.452Z,21.57
2018-01-03T05:41:46.415Z,21.60
2018-01-03T05:44:12.353Z,21.59
2018-01-03T05:46:38.321Z,21.58
2018-01-03T05:49:04.250Z,21.56
2018-01-03T05:51:30.214Z,21.57
2018-01-03T05:53:56.156Z,21.52
2018-01-03T05:56:22.125Z,21.55
2018-01-03T05:58:48.062Z,21.55
2018-01-03T06:01:14.019Z,21.52
2018-01-03T06:03:39.976Z,21.50
2018-01-03T06:06:05.949Z,21.54
2018-01-03T06:08:31.945Z,21.50
2018-01-03T06:10:57.886Z,21.56
2018-01-03T06:13:23.853Z,21.50
2018-01-03T06:15:49.797Z,21.48
2018-01-03T06:18:15.764Z,21.51
2018-01-03T06:20:41.733Z,21.49
2018-01-03T06:23:07.680Z,21.59
2018-01-03T06:25:33.645Z,21.51
2018-01-03T06:27:59.586Z,21.48
2018-01-03T06:30:25.529Z,21.59
2018-01-03T06:32:51.520Z,21.54
2018-01-03T06:35:17.463Z,21.50
2018-01-03T06:37:43.430Z,21.50
2018-01-03T06:40:09.381Z,21.49
2018-01-03T06:42:35.321Z,21.53
2018-01-03T06:45:01.341Z,21.51
2018-01-03T06:47:27.290Z,21.48
2018-01-03T06:49:53.233Z,21.51
2018-01-03T06:52:19.197Z,21.45
2018-01-03T06:54:45.156Z,21.58
2018-01-03T06:57:11.106Z,21.52
2018-01-03T06:59:37.150Z,21.54
2018-01-03T07:02:03.093Z,21.52
2018-01-03T07:04:29.053Z,21.53
2018-01-03T07:06:55.017Z,21.59
2018-01-03T07:09:21.037Z,21.55
2018-01-03T07:11:46.997Z,21.56
2018-01-03T07:14:12.941Z,21.52
2018-01-03T07:16:38.894Z,21.53
2018-01-03T07:19:04.849Z,21.53
2018-01-03T07:21:30.805Z,21.51
2018-01-03T07:23:56.769Z,21.47
2018-01-03T07:26:22.708Z,21.51
2018-01-03T07:28:48.682Z,21.45
2018-01-03T07:31:14.614Z,21.48
2018-01-03T07:33:40.573Z,21.49
2018-01-03T07:36:06.513Z,21.47
2018-01-03T07:38:32.496Z,21.42
2018-01-03T07:40:58.447Z,21.43
2018-01-03T07:43:24.389Z,21.51
2018-01-03T07:45:50.340Z,21.51
2018-01-03T07:48:16.284Z,21.46
2018-01-03T07:50:42.249Z,21.50
2018-01-03T07:53:08.211Z,21.46
2018-01-03T07:55:34.172Z,21.43
2018-01-03T07:58:00.114Z,21.43
2018-01-03T08:00:26.089Z,21.49
2018-01-03T08:02:52.044Z,21.46
2018-01-03T08:05:17.976Z,21.48
2018-01-03T08:07:43.957Z,21.45
2018-01-03T08:10:09.912Z,21.57
2018-01-03T08:12:35.949Z,21.51
2018-01-03T08:15:01.986Z,21.44
2018-01-03T08:17:27.953Z,21.51
2018-01-03T08:19:53.896Z,21.51
2018-01-03T08:22:19.865Z,21.49
2018-01-03T08:24:45.814Z,21.56
2018-01-03T08:27:11.769Z,21.51
2018-01-03T08:29:37.721Z,21.51
2018-01-03T08:32:03.681Z,21.53
2018-01-03T08:34:29.630Z,21.57
2018-01-03T08:36:55.580Z,21.58
2018-01-03T08:39:21.573Z,21.71
2018-01-03T08:41:48.088Z,21.58
2018-01-03T08:44:14.030Z,21.66
2018-01-03T08:46:40.068Z,21.61
2018-01-03T08:49:06.086Z,21.60
2018-01-03T08:51:32.065Z,21.59
2018-01-03T08:53:57.997Z,21.69
2018-01-03T08:56:24.059Z,21.69
2018-01-03T08:58:50.005Z,21.66
2018-01-03T09:01:15.964Z,21.62
2018-01-03T09:03:41.933Z,21.65
2018-01-03T09:06:07.894Z,21.61
2018-01-03T09:08:33.844Z,21.61
2018-01-03T09:10:59.781Z,21.62
2018-01-03T09:13:25.741Z,21.59
2018-01-03T09:15:51.676Z,21.66
2018-01-03T09:18:17.654Z,21.69
2018-01-03T09:20:43.642Z,21.80
2018-01-03T09:23:09.601Z,21.74
2018-01-03T09:25:35.557Z,21.71
2018-01-03T09:28:01.733Z,21.66
2018-01-03T09:30:27.689Z,21.67
2018-01-03T09:32:53.651Z,21.69
2018-01-03T09:35:19.612Z,21.73
2018-01-03T09:37:45.553Z,21.69
2018-01-03T09:40:11.518Z,21.77
2018-01-03T09:42:37.496Z,21.73
2018-01-03T09:45:03.452Z,21.65
2018-01-03T09:47:29.392Z,21.62
2018-01-03T09:49:55.363Z,21.58
2018-01-03T09:52:21.330Z,21.55
2018-01-03T09:54:47.329Z,21.57
2018-01-03T09:57:13.350Z,21.56
2018-01-03T09:59:39.389Z,21.54
2018-01-03T10:02:05.348Z,21.53
2018-01-03T10:04:31.354Z,21.52
2018-01-03T10:06:57.525Z,21.48
2018-01-03T10:09:23.469Z,21.49
2018-01-03T10:11:49.433Z,21.56
2018-01-03T10:14:15.402Z,21.61
2018-01-03T10:16:41.378Z,21.59
2018-01-03T10:19:07.353Z,21.65
2018-01-03T10:21:33.349Z,21.59
2018-01-03T10:23:59.362Z,21.64
2018-01-03T10:26:25.305Z,21.61
2018-01-03T10:28:51.245Z,21.70
2018-01-03T10:31:17.241Z,21.59
2018-01-03T10:33:43.290Z,21.60
2018-01-03T10:36:09.256Z,21.54
2018-01-03T10:38:35.212Z,21.54
2018-01-03T10:41:01.181Z,21.63
2018-01-03T10:43:27.122Z,21.55
2018-01-03T10:45:53.113Z,21.60
2018-01-03T10:48:19.056Z,21.61
2018-01-03T10:50:45.025Z,21.61
2018-01-03T10:53:11.020Z,21.59
2018-01-03T10:55:36.965Z,21.55
2018-01-03T10:58:02.950Z,21.59
2018-01-03T11:00:28.893Z,21.67
2018-01-03T11:02:54.910Z,21.65
2018-01-03T11:05:20.869Z,21.63
2018-01-03T11:07:46.813Z,21.67
2018-01-03T11:10:12.782Z,21.62
2018-01-03T11:12:38.814Z,21.65
2018-01-03T11:15:04.785Z,21.64
2018-01-03T11:17:30.735Z,21.61
2018-01-03T11:19:56.689Z,21.63
2018-01-03T11:22:22.674Z,21.58
2018-01-03T11:24:48.618Z,21.58
2018-01-03T11:27:14.698Z,21.62
2018-01-03T11:29:40.631Z,21.60
2018-01-03T11:32:06.594Z,21.60
2018-01-03T11:34:32.582Z,21.59
2018-01-03T11:36:58.525Z,21.58
2018-01-03T11:39:24.481Z,21.60
2018-01-03T11:41:50.454Z,21.59
2018-01-03T11:44:16.430Z,21.56
2018-01-03T11:46:42.386Z,21.56
2018-01-03T11:49:08.337Z,21.70
2018-01-03T11:51:34.494Z,21.59
2018-01-03T11:54:00.494Z,21.62
2018-01-03T11:56:26.463Z,21.61
2018-01-03T11:58:52.422Z,21.58
2018-01-03T12:01:18.373Z,21.56
2018-01-03T12:03:44.327Z,21.57
2018-01-03T12:06:10.281Z,21.54
2018-01-03T12:08:36.214Z,21.65
2018-01-03T12:11:02.173Z,21.53
2018-01-03T12:13:28.130Z,21.52
2018-01-03T12:15:54.079Z,21.52
2018-01-03T12:18:20.041Z,21.72
2018-01-03T12:20:45.990Z,21.61
2018-01-03T12:23:11.977Z,21.59
2018-01-03T12:25:37.966Z,21.62
2018-01-03T12:28:03.910Z,21.60
2018-01-03T12:30:29.866Z,21.59
2018-01-03T12:32:55.824Z,21.58
2018-01-03T12:35:21.786Z,21.62
2018-01-03T12:37:47.750Z,21.55
2018-01-03T12:40:13.687Z,21.60
2018-01-03T12:42:39.648Z,21.58
2018-01-03T12:45:05.725Z,21.65
2018-01-03T12:47:31.689Z,21.65
2018-01-03T12:49:57.626Z,21.64
2018-01-03T12:52:23.649Z,21.66
2018-01-03T12:54:49.589Z,21.61
2018-01-03T12:57:15.544Z,21.72
2018-01-03T12:59:41.489Z,21.71
2018-01-03T13:02:07.464Z,21.59
2018-01-03T13:04:33.430Z,21.72
2018-01-03T13:06:59.397Z,21.69
2018-01-03T13:09:25.351Z,21.74
2018-01-03T13:11:51.305Z,21.68
2018-01-03T13:14:17.266Z,21.78
2018-01-03T13:16:43.236Z,21.66
2018-01-03T13:19:09.186Z,21.70
2018-01-03T13:21:35.132Z,21.57
2018-01-03T13:24:01.077Z,21.67
2018-01-03T13:26:27.066Z,21.68
2018-01-03T13:28:53.013Z,21.68
2018-01-03T13:31:18.966Z,21.70
2018-01-03T13:33:44.915Z,21.68
2018-01-03T13:36:10.904Z,21.71
2018-01-03T13:38:36.836Z,21.61
2018-01-03T13:41:02.840Z,21.55
2018-01-03T13:43:28.794Z,21.57
2018-01-03T13:45:54.733Z,21.63
2018-01-03T13:48:20.702Z,21.67
2018-01-03T13:50:46.654Z,21.60
2018-01-03T13:53:12.600Z,21.57
2018-01-03T13:55:38.548Z,21.57
2018-01-03T13:58:04.505Z,21.62
2018-01-03T14:00:30.464Z,21.61
2018-01-03T14:02:56.442Z,21.59
2018-01-03T14:05:22.400Z,21.51
2018-01-03T14:07:48.341Z,21.55
2018-01-03T14:10:14.297Z,21.57
2018-01-03T14:12:40.239Z,21.53
2018-01-03T14:15:06.197Z,21.54
2018-01-03T14:17:32.150Z,21.53
2018-01-03T14:19:58.094Z,21.67
2018-01-03T14:22:24.069Z,21.68
2018-01-03T14:24:50.093Z,21.71
2018-01-03T15:53:16.059Z,21.78
2018-01-03T15:55:42.047Z,21.86
2018-01-03T15:58:08.063Z,21.82
2018-01-03T16:00:34.096Z,21.77
2018-01-03T16:03:00.105Z,21.82
2018-01-03T16:05:26.108Z,21.74
2018-01-03T16:07:52.096Z,21.76
2018-01-03T16:10:18.111Z,21.82
2018-01-03T16:12:44.097Z,21.80
2018-01-03T16:15:10.087Z,21.82
2018-01-03T16:17:36.083Z,21.82
2018-01-03T16:20:02.594Z,21.68
2018-01-03T16:22:29.048Z,21.73
2018-01-03T16:24:55.573Z,21.72
2018-01-03T16:27:22.149Z,21.76
2018-01-03T16:29:48.155Z,21.86
2018-01-03T16:32:14.150Z,21.90
2018-01-03T16:34:43.131Z,21.82
2018-01-03T16:37:09.316Z,21.71
2018-01-03T16:39:35.286Z,21.78
2018-01-03T16:42:01.326Z,21.83
2018-01-03T16:44:27.342Z,21.85
2018-01-03T16:46:53.338Z,21.88
2018-01-03T16:49:19.342Z,21.85
2018-01-03T16:51:45.357Z,21.88
2018-01-03T16:54:12.056Z,21.95
2018-01-03T16:56:38.060Z,21.85
2018-01-03T16:59:04.049Z,21.89
2018-01-03T17:01:30.128Z,21.84
2018-01-03T17:06:31.555Z,21.77
2018-01-03T17:08:57.546Z,21.81
2018-01-03T17:11:23.565Z,21.83
2018-01-03T17:13:50.297Z,21.81
2018-01-03T17:16:17.768Z,21.83
2018-01-03T17:18:45.166Z,21.82
2018-01-03T17:21:11.370Z,21.78
2018-01-03T17:23:37.369Z,21.75
2018-01-03T17:26:03.365Z,21.78
2018-01-03T17:28:29.402Z,21.81
2018-01-03T17:30:55.398Z,21.83
2018-01-03T17:33:21.350Z,21.77
2018-01-03T17:35:47.343Z,21.80
2018-01-03T17:38:13.334Z,21.87
2018-01-03T17:40:39.325Z,21.81
2018-01-03T17:45:37.065Z,21.85
2018-01-03T17:48:03.102Z,21.86
2018-01-03T17:50:29.101Z,22.01
2018-01-03T17:52:55.198Z,21.85
2018-01-03T17:55:21.258Z,21.86
2018-01-03T17:57:47.244Z,21.86
2018-01-03T18:00:13.254Z,21.73
2018-01-03T18:02:40.292Z,21.78
2018-01-03T18:05:06.511Z,21.85
2018-01-03T18:07:32.514Z,21.99
2018-01-03T18:09:58.525Z,21.97
2018-01-03T18:12:24.511Z,21.95
2018-01-03T18:14:50.481Z,21.88
2018-01-03T18:17:16.461Z,21.92
2018-01-03T18:19:42.518Z,21.94
2018-01-03T18:22:08.716Z,21.96
2018-01-03T18:24:34.970Z,21.94
2018-01-03T18:27:00.946Z,21.94
2018-01-03T18:29:26.981Z,21.92
2018-01-03T18:31:53.203Z,21.93
2018-01-03T18:34:19.380Z,21.95
2018-01-03T18:36:45.468Z,21.93
2018-01-03T18:39:11.685Z,21.90
2018-01-03T18:41:38.048Z,21.88
2018-01-03T18:44:04.120Z,21.88
2018-01-03T18:46:30.150Z,21.85
2018-01-03T18:48:56.147Z,21.76
2018-01-03T18:51:22.133Z,21.72
2018-01-03T18:53:48.100Z,21.77
2018-01-03T18:56:14.099Z,21.74
2018-01-03T18:58:40.071Z,21.70
2018-01-03T19:01:06.038Z,21.71
2018-01-03T19:03:32.010Z,21.70
2018-01-03T19:05:57.967Z,21.77
2018-01-03T19:08:23.938Z,21.84
2018-01-03T19:10:49.934Z,21.82
2018-01-03T19:13:15.930Z,21.78
2018-01-03T19:15:41.945Z,21.91
2018-01-03T19:18:07.905Z,21.86
2018-01-03T19:20:33.902Z,21.80
2018-01-03T19:22:59.856Z,21.82
2018-01-03T19:25:25.832Z,21.84
2018-01-03T19:27:51.835Z,21.86
2018-01-03T19:30:17.820Z,21.79
2018-01-03T19:32:43.857Z,21.75
2018-01-03T19:35:09.842Z,21.71
2018-01-03T19:37:35.836Z,21.70
2018-01-03T19:40:01.867Z,21.64
2018-01-03T19:42:27.868Z,21.66
2018-01-03T19:44:53.866Z,21.72
2018-01-03T19:47:20.195Z,21.70
2018-01-03T19:49:46.697Z,21.61
2018-01-03T19:52:12.691Z,21.76
2018-01-03T19:54:38.660Z,21.71
2018-01-03T19:57:04.617Z,21.66
2018-01-03T19:59:34.203Z,21.70
2018-01-03T20:02:00.305Z,21.76
2018-01-03T20:04:26.262Z,21.77
2018-01-03T20:06:52.213Z,21.73
2018-01-03T20:09:18.508Z,21.76
2018-01-03T20:11:44.498Z,21.86
2018-01-03T20:14:10.507Z,21.77
2018-01-03T20:16:36.475Z,21.75
2018-01-03T20:19:02.450Z,21.82
2018-01-03T20:21:29.022Z,21.86
2018-01-03T20:23:55.135Z,21.79
2018-01-03T20:26:21.207Z,21.77
2018-01-03T20:28:48.478Z,21.68
2018-01-03T20:31:14.532Z,21.61
2018-01-03T20:33:40.674Z,21.76
2018-01-03T20:36:08.926Z,21.74
2018-01-03T20:38:35.440Z,21.71
2018-01-03T20:41:01.644Z,21.70
2018-01-03T20:43:28.564Z,21.76
2018-01-03T20:45:54.914Z,21.78
2018-01-03T20:48:21.355Z,21.79
2018-01-03T20:50:52.890Z,21.76
2018-01-03T20:53:19.103Z,21.91
2018-01-03T20:55:45.360Z,21.97
2018-01-03T20:58:11.857Z,21.88
2018-01-03T21:00:38.540Z,21.80
2018-01-03T21:03:05.141Z,21.77
2018-01-03T21:05:31.255Z,21.72
2018-01-03T21:07:57.600Z,21.70
2018-01-03T21:10:23.990Z,21.71
2018-01-03T21:12:50.161Z,21.65
2018-01-03T21:15:16.539Z,21.72
2018-01-03T21:17:42.507Z,21.73
2018-01-03T21:20:08.517Z,21.70
2018-01-03T21:22:34.477Z,21.71
2018-01-03T21:25:00.464Z,21.78
2018-01-03T21:27:26.424Z,21.71
2018-01-03T21:29:52.382Z,21.79
2018-01-03T21:32:18.776Z,21.84
2018-01-03T21:34:44.750Z,21.72
2018-01-03T21:37:10.710Z,21.67
2018-01-03T21:39:36.669Z,21.65
2018-01-03T21:42:02.645Z,21.65
2018-01-03T21:44:28.612Z,21.64
2018-01-03T21:46:54.677Z,21.72
2018-01-03T21:49:20.668Z,21.79
2018-01-03T21:51:46.960Z,21.62
2018-01-03T21:54:13.032Z,21.56
2018-01-03T21:56:39.102Z,21.55
2018-01-03T21:59:05.116Z,21.58
2018-01-03T22:01:31.176Z,21.51
2018-01-03T22:03:57.411Z,21.51
2018-01-03T22:06:23.462Z,21.49
2018-01-03T22:08:49.422Z,21.45
2018-01-03T22:11:15.429Z,21.47
2018-01-03T22:13:41.403Z,21.46
2018-01-03T22:16:07.357Z,21.43
2018-01-03T22:18:33.342Z,21.48
2018-01-03T22:21:03.546Z,21.38
2018-01-03T22:23:30.170Z,21.30
2018-01-03T22:28:27.794Z,21.31
2018-01-03T22:33:25.143Z,21.24
2018-01-03T22:35:54.530Z,21.19
2018-01-03T22:38:20.512Z,21.19
2018-01-03T22:40:46.481Z,21.09
2018-01-03T22:43:12.459Z,21.14
2018-01-03T22:45:38.409Z,21.12
2018-01-03T22:48:04.348Z,21.12
2018-01-03T22:50:30.315Z,21.08
2018-01-03T22:52:56.325Z,21.10
2018-01-03T22:55:22.299Z,21.12
2018-01-03T22:57:48.281Z,21.07
2018-01-03T23:00:14.221Z,21.09
2018-01-03T23:02:40.197Z,21.11
2018-01-03T23:05:06.266Z,21.08
2018-01-03T23:07:32.226Z,21.07
2018-01-03T23:09:58.197Z,21.05
2018-01-03T23:12:24.125Z,21.15
2018-01-03T23:14:50.085Z,21.21
2018-01-03T23:17:16.055Z,21.14
2018-01-03T23:19:42.115Z,21.05
2018-01-03T23:22:08.066Z,21.00
2018-01-03T23:24:34.042Z,21.04
2018-01-03T23:27:00.006Z,21.05
2018-01-03T23:29:25.977Z,20.97
2018-01-03T23:31:51.974Z,20.99
2018-01-03T23:34:17.969Z,21.03
2018-01-03T23:36:43.932Z,21.03
2018-01-03T23:39:09.897Z,21.02
2018-01-03T23:41:35.859Z,20.97
2018-01-03T23:44:01.818Z,21.02
2018-01-03T23:46:27.770Z,20.97
2018-01-03T23:48:53.710Z,20.99
2018-01-03T23:51:19.741Z,20.95
2018-01-03T23:53:45.706Z,20.96
2018-01-03T23:56:11.657Z,20.90
2018-01-03T23:58:37.621Z,21.14
